createdAt,value
2018-09-12T00:02:34.996Z,5.83
2018-09-12T00:07:15.177Z,6.87
2018-09-12T00:11:55.361Z,8.00
2018-09-12T00:16:36.121Z,6.90
2018-09-12T00:21:16.314Z,6.50
2018-09-12T00:25:56.912Z,8.78
2018-09-12T00:30:36.753Z,9.35
2018-09-12T00:35:16.907Z,5.65
2018-09-12T00:39:57.029Z,5.50
2018-09-12T00:44:38.431Z,6.53
2018-09-12T00:49:18.391Z,6.50
2018-09-12T00:53:58.617Z,5.42
2018-09-12T00:58:38.439Z,4.95
2018-09-12T01:03:18.557Z,7.62
2018-09-12T01:07:58.657Z,5.12
2018-09-12T01:12:39.024Z,6.75
2018-09-12T01:17:19.944Z,5.55
2018-09-12T01:22:00.553Z,5.60
2018-09-12T01:26:40.876Z,6.78
2018-09-12T01:31:22.258Z,4.87
2018-09-12T01:36:02.695Z,6.42
2018-09-12T01:40:43.039Z,6.40
2018-09-12T01:45:23.016Z,4.55
2018-09-12T01:50:03.076Z,3.60
2018-09-12T01:54:43.186Z,7.62
2018-09-12T01:59:23.136Z,7.17
2018-09-12T02:04:03.688Z,4.37
2018-09-12T02:08:43.935Z,7.58
2018-09-12T02:13:24.125Z,8.40
2018-09-12T02:18:04.704Z,6.17
2018-09-12T02:22:46.089Z,7.00
2018-09-12T02:27:26.955Z,5.03
2018-09-12T02:32:06.927Z,6.28
2018-09-12T02:36:47.128Z,8.08
2018-09-12T02:41:27.359Z,4.62
2018-09-12T02:46:08.457Z,6.05
2018-09-12T02:50:48.689Z,6.05
2018-09-12T02:55:28.806Z,7.85
2018-09-12T03:00:09.304Z,7.05
2018-09-12T03:04:53.228Z,5.35
2018-09-12T03:09:33.236Z,6.10
2018-09-12T03:14:15.029Z,5.60
2018-09-12T03:18:55.616Z,6.85
2018-09-12T03:23:36.373Z,7.17
2018-09-12T03:28:16.323Z,8.55
2018-09-12T03:32:56.614Z,5.20
2018-09-12T03:37:36.739Z,7.85
2018-09-12T03:42:17.845Z,6.75
2018-09-12T03:46:59.949Z,4.65
2018-09-12T03:51:40.415Z,6.60
2018-09-12T03:56:20.912Z,7.20
2018-09-12T04:01:01.355Z,5.78
2018-09-12T04:05:41.727Z,7.05
2018-09-12T04:10:21.609Z,5.72
2018-09-12T04:15:01.557Z,7.33
2018-09-12T04:19:41.568Z,5.63
2018-09-12T04:24:21.742Z,8.70
2018-09-12T04:29:02.593Z,7.83
2018-09-12T04:33:44.076Z,6.37
2018-09-12T04:38:23.952Z,6.17
2018-09-12T04:43:04.683Z,6.22
2018-09-12T04:47:45.076Z,6.67
2018-09-12T04:52:25.335Z,8.25
2018-09-12T04:57:05.826Z,5.92
2018-09-12T05:01:45.960Z,8.68
2018-09-12T05:06:28.952Z,5.63
2018-09-12T05:11:09.741Z,7.80
2018-09-12T05:15:49.776Z,5.80
2018-09-12T05:20:29.891Z,8.45
2018-09-12T05:25:10.153Z,6.45
2018-09-12T05:29:51.466Z,9.45
2018-09-12T05:34:33.335Z,8.63
2018-09-12T05:39:13.364Z,8.55
2018-09-12T05:43:53.730Z,7.95
2018-09-12T05:48:34.125Z,7.77
2018-09-12T05:53:14.120Z,8.25
2018-09-12T05:57:54.714Z,7.05
2018-09-12T06:02:34.720Z,10.28
2018-09-12T06:07:14.841Z,10.03
2018-09-12T06:11:54.963Z,9.20
2018-09-12T06:16:35.430Z,12.70
2018-09-12T06:21:16.644Z,11.12
2018-09-12T06:25:57.097Z,10.45
2018-09-12T06:30:37.750Z,10.05
2018-09-12T06:35:17.699Z,10.95
2018-09-12T06:39:58.182Z,9.75
2018-09-12T06:44:38.935Z,11.25
2018-09-12T06:49:18.979Z,10.00
2018-09-12T06:53:59.416Z,8.98
2018-09-12T06:58:40.065Z,14.55
2018-09-12T07:03:20.305Z,8.95
2018-09-12T07:08:01.184Z,11.20
2018-09-12T07:12:41.609Z,14.43
2018-09-12T07:17:21.651Z,9.25
2018-09-12T07:22:01.775Z,11.55
2018-09-12T07:26:41.949Z,14.25
2018-09-12T07:31:22.804Z,13.62
2018-09-12T07:36:04.449Z,11.28
2018-09-12T07:40:44.618Z,15.32
2018-09-12T07:45:25.609Z,18.82
2018-09-12T07:50:06.324Z,11.35
2018-09-12T07:54:48.245Z,9.90
2018-09-12T07:59:28.399Z,9.58
2018-09-12T08:04:09.400Z,13.08
2018-09-12T08:08:49.485Z,11.05
2018-09-12T08:13:29.563Z,7.75
2018-09-12T08:18:17.357Z,9.08
2018-09-12T08:22:57.833Z,9.53
2018-09-12T08:27:37.706Z,11.25
2018-09-12T08:32:18.616Z,16.45
2018-09-12T08:36:58.784Z,12.95
2018-09-12T08:41:39.009Z,7.97
2018-09-12T08:46:19.973Z,8.70
2018-09-12T08:51:01.771Z,7.22
2018-09-12T08:55:41.729Z,6.78
2018-09-12T09:00:26.810Z,7.83
2018-09-12T09:05:07.920Z,6.22
2018-09-12T09:09:47.940Z,9.48
2018-09-12T09:14:28.336Z,9.48
2018-09-12T09:19:08.652Z,9.53
2018-09-12T09:23:49.742Z,9.70
2018-09-12T09:28:30.064Z,6.17
2018-09-12T09:33:10.654Z,5.90
2018-09-12T09:37:50.880Z,6.72
2018-09-12T09:42:32.220Z,4.83
2018-09-12T09:47:12.796Z,4.85
2018-09-12T09:51:53.100Z,10.98
2018-09-12T09:56:33.467Z,9.53
2018-09-12T10:01:18.965Z,8.73
2018-09-12T10:06:04.526Z,6.92
2018-09-12T10:10:44.518Z,10.00
2018-09-12T10:15:25.381Z,13.70
2018-09-12T10:20:06.167Z,3.70
2018-09-12T10:24:46.519Z,5.50
2018-09-12T10:29:27.486Z,4.72
2018-09-12T10:34:08.477Z,7.22
2018-09-12T10:38:50.039Z,7.47
2018-09-12T10:43:31.388Z,4.17
2018-09-12T10:48:12.586Z,3.10
2018-09-12T10:52:54.098Z,5.92
2018-09-12T10:57:34.120Z,8.80
2018-09-12T11:02:14.381Z,6.17
2018-09-12T11:06:55.016Z,3.52
2018-09-12T11:11:34.889Z,5.70
2018-09-12T11:16:15.120Z,4.28
2018-09-12T11:20:55.101Z,6.42
2018-09-12T11:25:34.970Z,5.37
2018-09-12T11:30:15.681Z,3.70
2018-09-12T11:34:55.837Z,4.33
2018-09-12T11:39:36.393Z,4.30
2018-09-12T11:44:17.132Z,4.65
2018-09-12T11:48:57.861Z,7.10
2018-09-12T11:53:37.860Z,5.08
2018-09-12T11:58:18.865Z,2.95
2018-09-12T12:02:59.176Z,3.08
2018-09-12T12:07:40.583Z,4.50
2018-09-12T12:12:20.718Z,3.98
2018-09-12T12:17:02.093Z,3.00
2018-09-12T12:21:42.621Z,4.75
2018-09-12T12:26:22.694Z,3.08
2018-09-12T12:31:02.824Z,4.47
2018-09-12T12:35:42.851Z,4.17
2018-09-12T12:40:23.453Z,5.17
2018-09-12T12:45:04.056Z,4.60
2018-09-12T12:49:44.913Z,3.15
2018-09-12T12:54:24.849Z,4.67
2018-09-12T12:59:05.136Z,3.92
2018-09-12T13:03:44.960Z,5.17
2018-09-12T13:08:24.862Z,3.37
2018-09-12T13:13:04.718Z,2.33
2018-09-12T13:17:44.593Z,4.85
2018-09-12T13:22:24.436Z,4.05
2018-09-12T13:27:04.316Z,2.40
2018-09-12T13:31:44.387Z,3.80
2018-09-12T13:36:24.555Z,4.62
2018-09-12T13:41:04.765Z,4.87
2018-09-12T13:45:44.850Z,5.67
2018-09-12T13:50:25.775Z,6.25
2018-09-12T13:55:06.405Z,4.25
2018-09-12T13:59:46.325Z,3.60
2018-09-12T14:04:27.356Z,5.60
2018-09-12T14:09:09.702Z,2.70
2018-09-12T14:13:50.471Z,5.28
2018-09-12T14:18:30.904Z,2.70
2018-09-12T14:23:10.840Z,3.17
2018-09-12T14:27:51.145Z,2.85
2018-09-12T14:32:31.805Z,3.50
2018-09-12T14:37:11.836Z,4.83
2018-09-12T14:41:53.264Z,5.22
2018-09-12T14:46:33.436Z,3.37
2018-09-12T14:51:13.311Z,3.47
2018-09-12T14:55:53.025Z,3.67
2018-09-12T15:00:34.219Z,3.12
2018-09-12T15:05:14.488Z,9.00
2018-09-12T15:09:55.769Z,5.70
2018-09-12T15:14:36.223Z,4.92
2018-09-12T15:19:16.024Z,4.15
2018-09-12T15:23:56.164Z,4.05
2018-09-12T15:28:36.156Z,9.20
2018-09-12T15:33:16.171Z,4.00
2018-09-12T15:37:57.047Z,4.62
2018-09-12T15:42:37.576Z,4.50
2018-09-12T15:47:17.815Z,3.05
2018-09-12T15:51:58.476Z,4.50
2018-09-12T15:56:38.827Z,4.58
2018-09-12T16:01:19.278Z,7.37
2018-09-12T16:05:59.059Z,7.80
2018-09-12T16:10:39.564Z,4.62
2018-09-12T16:15:20.934Z,3.90
2018-09-12T16:20:00.636Z,4.75
2018-09-12T16:24:41.536Z,5.15
2018-09-12T16:29:21.304Z,5.03
2018-09-12T16:34:01.365Z,6.95
2018-09-12T16:38:47.931Z,8.00
2018-09-12T16:43:28.847Z,8.38
2018-09-12T16:48:09.442Z,4.22
2018-09-12T16:52:50.289Z,10.85
2018-09-12T16:57:30.398Z,8.80
2018-09-12T17:02:11.389Z,8.93
2018-09-12T17:06:51.236Z,11.88
2018-09-12T17:11:31.707Z,5.97
2018-09-12T17:16:11.676Z,6.25
2018-09-12T17:20:53.884Z,9.60
2018-09-12T17:25:33.770Z,3.95
2018-09-12T17:30:13.716Z,3.95
2018-09-12T17:34:53.670Z,6.33
2018-09-12T17:39:33.602Z,5.50
2018-09-12T17:44:13.425Z,7.95
2018-09-12T17:48:53.932Z,5.25
2018-09-12T17:53:34.071Z,6.55
2018-09-12T17:58:14.025Z,5.08
2018-09-12T18:02:54.107Z,5.33
2018-09-12T18:07:34.197Z,6.45
2018-09-12T18:12:13.992Z,5.87
2018-09-12T18:16:53.900Z,3.35
2018-09-12T18:21:33.746Z,5.12
2018-09-12T18:26:13.827Z,8.75
2018-09-12T18:30:53.817Z,4.53
2018-09-12T18:35:33.504Z,6.33
2018-09-12T18:40:13.551Z,6.47
2018-09-12T18:44:53.967Z,6.05
2018-09-12T18:49:33.863Z,4.03
2018-09-12T18:54:13.479Z,4.08
2018-09-12T18:58:54.483Z,6.12
2018-09-12T19:03:34.560Z,6.55
2018-09-12T19:08:15.899Z,5.20
2018-09-12T19:12:56.577Z,5.67
2018-09-12T19:17:37.366Z,3.95
2018-09-12T19:22:18.029Z,4.12
2018-09-12T19:26:58.580Z,3.60
2018-09-12T19:31:38.492Z,4.22
2018-09-12T19:36:18.303Z,6.55
2018-09-12T19:40:58.068Z,3.65
2018-09-12T19:45:38.834Z,7.62
2018-09-12T19:50:19.091Z,5.20
2018-09-12T19:54:59.558Z,5.58
2018-09-12T19:59:39.440Z,4.12
2018-09-12T20:04:20.016Z,5.75
2018-09-12T20:09:00.313Z,6.08
2018-09-12T20:13:40.725Z,10.08
2018-09-12T20:18:21.229Z,6.87
2018-09-12T20:23:01.024Z,7.05
2018-09-12T20:27:43.401Z,7.42
2018-09-12T20:32:24.064Z,8.63
2018-09-12T20:37:04.448Z,16.95
2018-09-12T20:41:44.244Z,5.45
2018-09-12T20:46:24.371Z,6.33
2018-09-12T20:51:04.163Z,4.87
2018-09-12T20:55:43.884Z,6.50
2018-09-12T21:00:23.852Z,8.00
2018-09-12T21:05:04.001Z,6.53
2018-09-12T21:09:43.979Z,6.65
2018-09-12T21:14:24.444Z,5.12
2018-09-12T21:19:04.624Z,5.90
2018-09-12T21:23:44.535Z,4.55
2018-09-12T21:28:24.575Z,5.53
2018-09-12T21:33:04.935Z,5.35
2018-09-12T21:37:45.191Z,5.17
2018-09-12T21:42:25.765Z,4.45
2018-09-12T21:47:05.686Z,4.33
2018-09-12T21:51:46.639Z,3.42
2018-09-12T21:56:27.210Z,4.58
2018-09-12T22:01:08.476Z,4.15
2018-09-12T22:05:49.290Z,5.62
2018-09-12T22:10:29.912Z,4.22
2018-09-12T22:15:09.836Z,4.05
2018-09-12T22:19:50.601Z,4.20
2018-09-12T22:24:30.542Z,8.38
2018-09-12T22:29:10.721Z,6.95
2018-09-12T22:33:50.534Z,6.53
2018-09-12T22:38:30.432Z,5.72
2018-09-12T22:43:10.396Z,3.40
2018-09-12T22:47:50.527Z,5.60
2018-09-12T22:52:31.175Z,3.90
2018-09-12T22:57:11.393Z,5.80
2018-09-12T23:01:51.580Z,3.87
2018-09-12T23:06:31.404Z,3.87
2018-09-12T23:11:12.408Z,4.55
2018-09-12T23:15:52.242Z,5.65
2018-09-12T23:20:32.145Z,7.15
2018-09-12T23:25:12.650Z,5.08
2018-09-12T23:29:52.561Z,7.28
2018-09-12T23:34:33.207Z,5.97
2018-09-12T23:39:14.349Z,3.95
2018-09-12T23:43:54.130Z,4.78
2018-09-12T23:48:34.048Z,5.47
2018-09-12T23:53:14.593Z,6.08
2018-09-12T23:57:54.813Z,7.33
